Time;durP1;ratioP1;P1;durP2;ratioP2;P2;SDS_P1;SDS_P2;PMS_P1;PMS_P2;Temp;Humidity;BMP_temperature;BMP_pressure;BME280_temperature;BME280_humidity;BME280_pressure;Samples;Min_cycle;Max_cycle;Signal;HPM_P1;HPM_P2
2023/07/04 00:00:43;;;;;;;4.72;1.80;;;;;;;16.37;57.11;99223.63;5072828;28;20056;-79
2023/07/04 00:03:10;;;;;;;6.15;2.08;;;;;;;16.34;57.32;99217.75;5072646;28;20063;-80
2023/07/04 00:05:38;;;;;;;4.57;1.70;;;;;;;16.32;57.34;99211.72;5073141;28;20124;-78
2023/07/04 00:08:05;;;;;;;5.93;1.80;;;;;;;16.30;57.96;99198.63;5073062;28;20063;-78
2023/07/04 00:10:32;;;;;;;4.10;1.45;;;;;;;16.28;58.26;99208.53;5072947;28;20060;-78
2023/07/04 00:12:58;;;;;;;3.60;1.60;;;;;;;16.27;58.60;99202.34;5072496;28;20606;-79
2023/07/04 00:15:25;;;;;;;6.97;1.52;;;;;;;16.27;58.96;99212.97;5072311;28;20044;-79
2023/07/04 00:17:51;;;;;;;6.30;1.90;;;;;;;16.26;59.28;99224.59;5073049;28;20048;-79
2023/07/04 00:20:19;;;;;;;3.35;1.60;;;;;;;16.26;59.77;99221.94;5072816;28;20040;-78
2023/07/04 00:22:45;;;;;;;5.55;1.40;;;;;;;16.27;59.90;99225.44;5072401;28;20531;-78
2023/07/04 00:25:12;;;;;;;4.70;1.73;;;;;;;16.27;60.09;99225.44;5071982;28;20056;-78
2023/07/04 00:27:39;;;;;;;3.30;1.50;;;;;;;16.29;60.22;99234.09;5055015;28;20056;-78
2023/07/04 00:30:08;;;;;;;6.00;1.80;;;;;;;16.28;60.35;99232.41;5071594;28;20131;-79
2023/07/04 00:32:35;;;;;;;4.72;1.23;;;;;;;16.28;60.59;99229.75;5072211;28;20063;-78
2023/07/04 00:35:02;;;;;;;3.60;1.73;;;;;;;16.27;60.49;99239.53;5072111;28;20487;-78
2023/07/04 00:37:29;;;;;;;4.35;1.63;;;;;;;16.26;60.59;99237.03;5072257;28;20094;-78
2023/07/04 00:39:56;;;;;;;2.95;1.40;;;;;;;16.25;60.63;99235.34;5072529;28;20044;-77
2023/07/04 00:42:23;;;;;;;5.82;1.70;;;;;;;16.24;60.63;99237.19;5072480;28;20173;-78
2023/07/04 00:44:55;;;;;;;4.28;1.38;;;;;;;16.24;60.78;99237.19;5072155;28;20056;-78
2023/07/04 00:47:32;;;;;;;5.03;1.70;;;;;;;16.22;60.81;99220.53;5072139;28;20505;-78
2023/07/04 00:50:07;;;;;;;4.90;1.40;;;;;;;16.23;61.19;99221.38;5072217;28;20067;-78
2023/07/04 00:52:36;;;;;;;6.10;1.35;;;;;;;16.23;60.92;99221.38;5052329;28;20119;-78
2023/07/04 00:55:10;;;;;;;3.72;1.40;;;;;;;16.22;61.40;99230.31;5052711;28;20052;-80
2023/07/04 00:57:38;;;;;;;4.15;1.48;;;;;;;16.25;60.71;99230.88;5071379;28;20048;-79
2023/07/04 01:00:17;;;;;;;4.15;1.20;;;;;;;16.24;61.10;99234.53;5071879;28;20052;-78
2023/07/04 01:02:48;;;;;;;3.03;1.20;;;;;;;16.27;60.46;99233.41;5071623;28;20551;-80
2023/07/04 01:05:19;;;;;;;4.22;1.23;;;;;;;16.26;60.41;99232.56;5071781;28;20044;-78
2023/07/04 01:07:53;;;;;;;6.55;1.40;;;;;;;16.27;60.08;99230.75;5072035;28;20060;-78
2023/07/04 01:10:28;;;;;;;2.92;1.45;;;;;;;16.27;60.02;99226.25;5071821;28;20457;-78
2023/07/04 01:12:55;;;;;;;4.18;1.30;;;;;;;16.30;59.49;99235.78;5071930;28;20056;-78
2023/07/04 01:15:23;;;;;;;3.35;1.08;;;;;;;16.28;59.24;99235.94;5053470;28;20055;-78
2023/07/04 01:17:53;;;;;;;5.80;1.08;;;;;;;16.27;59.65;99234.22;5071480;28;20056;-78
2023/07/04 01:20:20;;;;;;;3.83;1.10;;;;;;;16.30;59.13;99229.63;5053943;28;20040;-79
2023/07/04 01:22:53;;;;;;;3.20;1.20;;;;;;;16.27;59.38;99236.06;5071718;28;20056;-79
2023/07/04 01:25:23;;;;;;;;;;;;;;;16.28;58.22;99230.63;5071717;28;20040;-79
2023/07/04 01:27:59;;;;;;;3.65;1.20;;;;;;;16.33;58.51;99232.03;5071352;28;20382;-80
2023/07/04 01:30:28;;;;;;;2.08;1.17;;;;;;;16.30;58.59;99227.81;5127319;22;20048;-81
2023/07/04 01:32:56;;;;;;;2.92;1.30;;;;;;;16.30;58.69;99233.13;5069545;28;20514;-80
2023/07/04 01:35:23;;;;;;;4.18;1.42;;;;;;;16.29;58.70;99242.06;5070869;28;20044;-80
2023/07/04 01:37:49;;;;;;;4.95;1.30;;;;;;;16.28;58.65;99241.25;5052975;28;20072;-80
2023/07/04 01:40:16;;;;;;;3.90;1.30;;;;;;;16.29;58.76;99250.03;5070027;28;20056;-80
2023/07/04 01:42:44;;;;;;;2.50;1.27;;;;;;;16.30;58.80;99249.06;5050728;28;20404;-80
2023/07/04 01:45:11;;;;;;;2.63;1.40;;;;;;;16.32;58.90;99240.94;5064971;28;20056;-80
2023/07/04 01:47:38;;;;;;;4.25;1.58;;;;;;;16.32;58.78;99240.94;5051026;28;20052;-80
2023/07/04 01:50:07;;;;;;;5.15;1.27;;;;;;;16.32;58.96;99233.81;5050901;28;20057;-80
2023/07/04 01:52:33;;;;;;;3.85;1.60;;;;;;;16.34;58.72;99233.69;5051972;28;20068;-80
2023/07/04 01:55:00;;;;;;;5.05;1.40;;;;;;;16.35;58.94;99235.38;5051693;28;20049;-81
2023/07/04 01:57:26;;;;;;;4.60;1.25;;;;;;;16.36;58.72;99237.88;5065225;28;20056;-80
2023/07/04 01:59:52;;;;;;;6.03;1.30;;;;;;;16.37;58.90;99218.31;5070496;28;20458;-80
2023/07/04 02:02:19;;;;;;;5.38;1.60;;;;;;;16.37;58.69;99209.53;5052807;28;20075;-80
2023/07/04 02:04:45;;;;;;;4.38;1.30;;;;;;;16.38;58.72;99219.97;5051608;28;20503;-80
2023/07/04 02:07:12;;;;;;;4.82;1.38;;;;;;;16.40;58.81;99226.00;5050639;28;20060;-80
2023/07/04 02:09:38;;;;;;;7.55;2.03;;;;;;;16.39;58.64;99231.44;5050525;28;20610;-80
2023/07/04 02:12:05;;;;;;;3.17;1.50;;;;;;;16.39;58.54;99242.09;5067848;28;20582;-81
2023/07/04 02:14:31;;;;;;;6.05;1.55;;;;;;;16.39;58.77;99244.75;5068563;28;20052;-80
2023/07/04 02:16:58;;;;;;;4.18;1.38;;;;;;;16.39;58.82;99242.94;5053230;28;20041;-80
2023/07/04 02:19:24;;;;;;;4.70;1.60;;;;;;;16.39;58.73;99248.25;5050397;28;20049;-81
2023/07/04 02:21:51;;;;;;;5.43;1.40;;;;;;;16.40;58.82;99251.72;5051637;28;20144;-81
2023/07/04 02:24:17;;;;;;;7.97;1.90;;;;;;;16.42;59.01;99252.44;5038439;28;20053;-80
2023/07/04 02:26:43;;;;;;;6.45;2.10;;;;;;;16.42;58.86;99255.09;5032281;28;20048;-80
2023/07/04 02:29:10;;;;;;;4.50;1.60;;;;;;;16.42;58.82;99247.13;5061396;28;20059;-80
2023/07/04 02:31:36;;;;;;;5.07;1.83;;;;;;;16.41;nan;99235.66;5041067;28;20049;-80
2023/07/04 02:34:03;;;;;;;4.43;1.63;;;;;;;16.41;58.89;99234.81;5059788;28;20063;-80
2023/07/04 02:36:29;;;;;;;3.90;1.50;;;;;;;16.42;58.93;99229.34;5050787;28;20041;-80
2023/07/04 02:38:56;;;;;;;4.60;1.60;;;;;;;16.42;58.90;99231.19;5050019;28;20045;-80
2023/07/04 02:41:22;;;;;;;7.32;1.88;;;;;;;16.42;58.85;99236.50;5061719;28;20052;-80
2023/07/04 02:43:49;;;;;;;7.65;1.80;;;;;;;16.41;58.88;99238.31;5069744;28;20056;-80
2023/07/04 02:46:16;;;;;;;4.20;1.52;;;;;;;16.41;59.05;99230.34;5068626;28;20053;-80
2023/07/04 02:48:42;;;;;;;7.95;1.98;;;;;;;16.42;58.96;99236.50;5051408;28;20055;-80
2023/07/04 02:51:09;;;;;;;4.95;1.73;;;;;;;16.42;59.16;99232.00;5059821;28;20473;-80
2023/07/04 02:53:35;;;;;;;6.68;1.70;;;;;;;16.42;58.88;99233.84;5073567;28;20455;-80
2023/07/04 02:56:02;;;;;;;5.18;1.60;;;;;;;16.45;59.10;99235.38;5072132;28;20501;-80
2023/07/04 02:58:28;;;;;;;5.55;1.70;;;;;;;16.42;58.91;99234.66;5073640;28;20048;-80
2023/07/04 03:00:55;;;;;;;6.53;1.88;;;;;;;16.44;58.98;99247.00;5041364;28;20063;-80
2023/07/04 03:03:22;;;;;;;4.53;1.80;;;;;;;16.42;58.88;99245.28;5074334;28;20048;-80
2023/07/04 03:05:49;;;;;;;7.07;1.60;;;;;;;16.41;58.95;99246.28;5060683;28;20052;-80
2023/07/04 03:08:15;;;;;;;3.25;1.48;;;;;;;16.41;59.04;99245.47;5056694;28;20060;-81
2023/07/04 03:10:45;;;;;;;6.28;1.98;;;;;;;16.39;59.43;99242.09;5036971;28;20041;-80
2023/07/04 03:13:12;;;;;;;9.27;2.67;;;;;;;16.41;59.04;99248.09;5053718;28;20052;-80
2023/07/04 03:15:38;;;;;;;6.05;1.50;;;;;;;16.39;58.88;99239.44;5065831;28;20501;-80
2023/07/04 03:18:04;;;;;;;3.65;1.60;;;;;;;16.37;58.81;99236.09;5053760;28;20064;-80
2023/07/04 03:20:33;;;;;;;4.93;1.55;;;;;;;16.36;58.81;99237.88;5054892;28;20044;-80
2023/07/04 03:23:00;;;;;;;5.97;1.80;;;;;;;16.35;58.96;99246.00;5036027;28;20056;-80
2023/07/04 03:25:26;;;;;;;6.80;2.00;;;;;;;16.33;59.13;99242.66;5057440;28;20255;-81
2023/07/04 03:27:52;;;;;;;5.97;1.80;;;;;;;16.32;59.06;99246.25;5073580;28;20064;-80
2023/07/04 03:30:19;;;;;;;4.85;1.67;;;;;;;16.32;59.15;99240.94;5073400;28;20443;-80
2023/07/04 03:32:45;;;;;;;6.50;2.03;;;;;;;16.31;59.17;99245.44;5071624;28;20414;-80
2023/07/04 03:35:12;;;;;;;6.75;1.65;;;;;;;16.32;59.17;99238.28;5067057;28;20052;-80
2023/07/04 03:37:38;;;;;;;6.50;1.90;;;;;;;16.33;59.11;99247.97;5052920;28;20502;-79
2023/07/04 03:40:07;;;;;;;6.60;1.58;;;;;;;16.33;59.54;99254.09;5053113;28;20332;-80
2023/07/04 03:42:36;;;;;;;4.55;1.52;;;;;;;16.35;59.56;99248.66;5036739;28;20056;-80
2023/07/04 03:45:04;;;;;;;6.43;1.90;;;;;;;16.38;59.42;99251.03;5063325;28;20084;-80
2023/07/04 03:47:30;;;;;;;8.73;1.63;;;;;;;16.39;59.37;99253.56;5073155;28;20052;-80
2023/07/04 03:49:57;;;;;;;5.60;1.85;;;;;;;16.41;59.35;99246.28;5062370;28;20594;-80
2023/07/04 03:52:24;;;;;;;7.55;1.83;;;;;;;16.42;59.28;99245.28;5054019;28;20049;-80
2023/07/04 03:54:51;;;;;;;5.40;2.03;;;;;;;16.45;59.34;99251.31;5053119;28;20053;-80
2023/07/04 03:57:17;;;;;;;4.85;1.98;;;;;;;16.45;59.33;99260.09;5054225;28;20047;-80
2023/07/04 03:59:44;;;;;;;3.90;1.50;;;;;;;16.45;59.42;99246.81;5072940;28;20044;-80
2023/07/04 04:02:10;;;;;;;5.38;1.58;;;;;;;16.45;59.30;99257.44;5055092;28;20061;-80
2023/07/04 04:04:39;;;;;;;4.85;1.92;;;;;;;16.46;59.44;99261.81;5048201;28;20050;-80
2023/07/04 04:07:09;;;;;;;6.90;2.00;;;;;;;16.46;59.51;99264.47;5032554;28;20049;-80
2023/07/04 04:09:37;;;;;;;3.50;1.50;;;;;;;16.47;59.47;99265.28;5033026;28;20107;-80
2023/07/04 04:12:05;;;;;;;3.38;1.38;;;;;;;16.47;59.51;99266.13;5068070;28;20344;-80
2023/07/04 04:14:32;;;;;;;6.85;1.63;;;;;;;16.47;59.48;99260.81;5071074;28;20052;-80
2023/07/04 04:16:59;;;;;;;6.13;1.73;;;;;;;16.48;59.48;99261.69;5063431;28;20064;-80
2023/07/04 04:19:26;;;;;;;2.75;1.35;;;;;;;16.49;59.54;99258.84;5034783;28;20049;-80
2023/07/04 04:21:54;;;;;;;6.15;1.80;;;;;;;16.50;59.57;99260.56;5068447;28;20040;-80
2023/07/04 04:24:21;;;;;;;9.13;2.15;;;;;;;16.49;59.79;99269.47;5069119;28;20052;-80
2023/07/04 04:26:48;;;;;;;6.15;2.03;;;;;;;16.50;59.51;99271.19;5052234;28;20119;-80
2023/07/04 04:29:17;;;;;;;7.18;2.38;;;;;;;16.52;59.51;99274.53;5034483;28;20048;-80
2023/07/04 04:31:47;;;;;;;6.07;1.58;;;;;;;16.51;60.15;99270.19;5062260;28;20072;-81
2023/07/04 04:34:16;;;;;;;6.53;1.80;;;;;;;16.55;59.80;99273.41;5062683;28;20053;-80
2023/07/04 04:36:43;;;;;;;4.22;1.70;;;;;;;16.59;59.91;99279.31;5070437;28;20055;-80
2023/07/04 04:39:09;;;;;;;6.57;1.75;;;;;;;16.64;60.01;99279.72;5043825;28;20053;-80
2023/07/04 04:41:36;;;;;;;4.15;1.50;;;;;;;16.68;60.03;99289.91;5052058;28;20507;-80
2023/07/04 04:44:04;;;;;;;4.38;1.35;;;;;;;16.73;60.05;99288.66;5052151;28;20111;-80
2023/07/04 04:46:32;;;;;;;7.97;1.60;;;;;;;16.76;59.67;99281.28;5052972;28;20400;-80
2023/07/04 04:49:02;;;;;;;4.57;1.40;;;;;;;16.79;59.62;99278.31;5052166;28;20056;-81
2023/07/04 04:51:29;;;;;;;5.82;1.80;;;;;;;16.84;59.61;99283.22;5064573;28;20052;-81
2023/07/04 04:53:57;;;;;;;7.65;2.17;;;;;;;16.86;59.41;99283.09;5071916;28;20061;-80
2023/07/04 04:56:24;;;;;;;5.35;1.60;;;;;;;16.87;59.50;99284.75;5042572;28;20499;-80
2023/07/04 04:58:50;;;;;;;7.47;1.83;;;;;;;16.89;59.38;99280.97;5066750;28;20056;-80
2023/07/04 05:01:22;;;;;;;6.28;2.20;;;;;;;16.90;59.69;99298.59;5052292;28;20052;-80
2023/07/04 05:03:52;;;;;;;3.30;1.50;;;;;;;16.93;59.47;99297.47;5053027;28;20127;-80
2023/07/04 05:06:25;;;;;;;6.00;1.58;;;;;;;16.96;59.23;99294.53;5063428;28;20044;-80
2023/07/04 05:08:52;;;;;;;6.00;1.63;;;;;;;16.98;59.40;99299.72;5071568;28;20052;-80
2023/07/04 05:11:19;;;;;;;3.30;1.63;;;;;;;17.00;59.34;99300.41;5069701;28;20048;-80
2023/07/04 05:13:47;;;;;;;10.82;1.95;;;;;;;17.02;59.18;99301.13;5071498;28;20052;-80
2023/07/04 05:16:20;;;;;;;6.65;2.15;;;;;;;17.04;59.29;99294.72;5054338;28;20132;-80
2023/07/04 05:18:50;;;;;;;6.75;1.98;;;;;;;17.10;59.16;99303.97;5033625;28;20084;-80
2023/07/04 05:21:19;;;;;;;6.00;2.17;;;;;;;17.12;59.17;99298.50;5034682;28;20048;-80
2023/07/04 05:23:48;;;;;;;7.60;1.70;;;;;;;17.16;59.07;99294.59;5051759;28;20431;-81
2023/07/04 05:26:21;;;;;;;5.88;2.38;;;;;;;17.16;59.03;99294.59;5071205;28;20049;-80
2023/07/04 05:28:50;;;;;;;8.55;2.17;;;;;;;17.19;58.42;99296.94;5053656;28;20131;-81
2023/07/04 05:31:19;;;;;;;5.15;2.00;;;;;;;17.18;58.55;99306.75;5060989;28;20555;-81
2023/07/04 05:33:45;;;;;;;6.85;2.25;;;;;;;17.17;58.23;99307.75;5065271;28;20044;-82
2023/07/04 05:36:13;;;;;;;3.85;1.77;;;;;;;17.16;58.48;99303.38;5071748;28;20088;-81
2023/07/04 05:38:41;;;;;;;6.30;1.95;;;;;;;17.15;58.30;99303.50;5058344;28;20511;-82
2023/07/04 05:41:12;;;;;;;8.40;2.10;;;;;;;17.11;58.67;99297.66;5060432;28;20142;-81
2023/07/04 05:43:40;;;;;;;6.93;2.53;;;;;;;17.13;58.17;99316.13;5052031;28;20052;-82
2023/07/04 05:46:08;;;;;;;6.95;1.90;;;;;;;17.11;58.34;99321.59;5056620;28;20053;-82
2023/07/04 05:48:35;;;;;;;4.97;2.05;;;;;;;17.12;58.50;99317.13;5050627;28;20508;-81
2023/07/04 05:51:03;;;;;;;11.10;1.88;;;;;;;17.11;58.72;99318.94;5059562;28;20044;-81
2023/07/04 05:53:36;;;;;;;5.70;2.00;;;;;;;17.12;59.17;99327.75;5065300;28;20324;-81
2023/07/04 05:56:11;;;;;;;8.10;2.30;;;;;;;17.16;59.22;99326.50;5054534;28;20045;-81
2023/07/04 05:58:40;;;;;;;7.20;2.22;;;;;;;17.25;59.11;99327.44;5050493;28;20083;-81
2023/07/04 06:01:24;;;;;;;4.25;2.17;;;;;;;17.30;59.13;99322.53;5049946;28;20052;-82
2023/07/04 06:03:52;;;;;;;13.70;1.95;;;;;;;17.39;58.45;99324.38;5067036;28;20052;-81
2023/07/04 06:06:26;;;;;;;6.82;1.90;;;;;;;17.43;58.78;99316.94;5070623;28;20127;-81
2023/07/04 06:08:55;;;;;;;4.43;1.85;;;;;;;17.50;58.21;99320.72;5054203;28;20059;-83
2023/07/04 06:11:24;;;;;;;7.47;1.88;;;;;;;17.54;58.29;99329.22;5032790;28;20499;-82
2023/07/04 06:13:50;;;;;;;5.78;1.90;;;;;;;17.55;57.83;99323.78;5032764;28;20059;-82
2023/07/04 06:16:17;;;;;;;3.72;2.00;;;;;;;17.58;57.94;99336.78;5033868;28;20063;-83
2023/07/04 06:18:44;;;;;;;5.93;1.90;;;;;;;17.61;57.96;99329.50;5069376;28;20056;-80
2023/07/04 06:21:12;;;;;;;5.97;2.20;;;;;;;17.63;57.95;99327.53;5060094;28;20056;-81
2023/07/04 06:23:40;;;;;;;5.20;1.58;;;;;;;17.66;57.77;99330.75;5060626;28;20044;-81
2023/07/04 06:26:07;;;;;;;8.60;1.77;;;;;;;17.70;57.73;99336.63;5066679;28;20075;-80
2023/07/04 06:28:35;;;;;;;6.82;1.73;;;;;;;17.74;57.76;99351.31;5069015;28;20407;-81
2023/07/04 06:31:06;;;;;;;5.18;1.73;;;;;;;17.78;57.80;99346.53;5043264;28;20059;-80
2023/07/04 06:33:33;;;;;;;9.93;2.13;;;;;;;17.84;57.61;99353.97;5039118;28;20045;-80
2023/07/04 06:36:00;;;;;;;6.60;2.10;;;;;;;17.90;57.49;99349.88;5049972;28;20049;-80
2023/07/04 06:38:27;;;;;;;6.88;1.45;;;;;;;17.96;57.34;99357.28;5050973;28;20049;-81
2023/07/04 06:40:58;;;;;;;9.70;2.00;;;;;;;18.02;57.44;99363.84;5057827;28;20049;-82
2023/07/04 06:43:26;;;;;;;7.25;1.95;;;;;;;18.06;57.11;99358.06;5052269;28;20054;-82
2023/07/04 06:45:55;;;;;;;4.00;1.70;;;;;;;18.12;56.92;99366.50;5061857;28;20080;-82
2023/07/04 06:48:23;;;;;;;3.83;2.00;;;;;;;18.18;57.23;99371.25;5033488;28;20045;-82
2023/07/04 06:51:00;;;;;;;6.95;2.08;;;;;;;18.19;57.46;99362.25;5057154;28;20041;-82
2023/07/04 06:53:28;;;;;;;6.90;2.13;;;;;;;18.28;57.25;99364.03;5069963;28;20110;-82
2023/07/04 06:56:07;;;;;;;7.00;1.95;;;;;;;18.32;57.18;99370.75;5061388;28;20049;-81
2023/07/04 06:58:37;;;;;;;7.57;2.03;;;;;;;18.44;57.23;99367.91;5050922;28;20510;-82
2023/07/04 07:01:04;;;;;;;5.70;2.08;;;;;;;18.51;56.50;99365.47;5039764;28;20063;-82
2023/07/04 07:03:31;;;;;;;11.75;2.47;;;;;;;18.56;56.69;99366.72;5050969;28;20053;-82
2023/07/04 07:06:02;;;;;;;6.55;1.98;;;;;;;18.59;56.11;99362.91;5049756;28;20466;-82
2023/07/04 07:08:28;;;;;;;7.72;2.05;;;;;;;18.64;56.11;99367.81;5031955;28;20049;-82
2023/07/04 07:10:58;;;;;;;7.10;2.58;;;;;;;18.67;55.64;99367.47;5051356;28;20475;-82
2023/07/04 07:13:25;;;;;;;7.78;2.65;;;;;;;18.72;55.62;99382.03;5050030;28;20061;-82
2023/07/04 07:16:05;;;;;;;7.57;2.50;;;;;;;18.74;55.96;99382.75;5039943;28;20139;-82
2023/07/04 07:18:34;;;;;;;9.23;2.90;;;;;;;18.81;55.88;99392.81;5055402;28;20041;-82
2023/07/04 07:21:02;;;;;;;11.75;2.90;;;;;;;18.86;55.53;99396.69;5064669;28;20056;-82
2023/07/04 07:23:31;;;;;;;9.52;2.72;;;;;;;18.91;55.36;99392.75;5069460;28;20414;-82
2023/07/04 07:26:00;;;;;;;7.50;2.00;;;;;;;18.97;55.08;99397.47;5069724;28;20052;-82
2023/07/04 07:28:28;;;;;;;9.85;2.60;;;;;;;19.01;55.22;99396.16;5069637;28;20058;-82
2023/07/04 07:31:07;;;;;;;10.88;2.72;;;;;;;19.05;55.13;99402.03;5133867;22;20139;-81
2023/07/04 07:33:35;;;;;;;6.93;2.00;;;;;;;19.14;55.22;99395.84;5070850;28;20052;-80
2023/07/04 07:36:12;;;;;;;9.02;2.38;;;;;;;19.19;55.16;99416.72;5089519;28;20054;-81
2023/07/04 07:38:39;;;;;;;10.25;2.88;;;;;;;19.29;55.00;99406.81;5088621;28;20086;-81
2023/07/04 07:41:06;;;;;;;8.57;2.40;;;;;;;19.39;54.97;99401.38;5093025;28;20062;-81
2023/07/04 07:43:33;;;;;;;10.48;2.50;;;;;;;19.48;54.60;99418.31;5093081;28;20044;-80
2023/07/04 07:46:01;;;;;;;7.57;2.40;;;;;;;19.57;54.55;99414.72;5092519;28;20059;-81
2023/07/04 07:48:27;;;;;;;8.32;2.22;;;;;;;19.65;54.15;99412.09;5091715;28;20505;-81
2023/07/04 07:50:54;;;;;;;5.82;1.85;;;;;;;19.73;53.58;99402.50;5093344;28;20627;-81
2023/07/04 07:53:21;;;;;;;8.85;2.15;;;;;;;19.80;53.38;99398.19;5092595;28;20044;-81
2023/07/04 07:55:48;;;;;;;4.88;2.38;;;;;;;19.86;53.12;99402.06;5092323;28;20048;-80
2023/07/04 07:58:14;;;;;;;9.00;2.13;;;;;;;19.91;52.38;99400.59;5074160;28;20047;-81
2023/07/04 08:00:41;;;;;;;6.03;1.85;;;;;;;19.95;52.48;99406.47;5069671;28;20521;-81
2023/07/04 08:03:08;;;;;;;6.78;2.05;;;;;;;19.99;52.09;99401.66;5092893;28;20051;-81
2023/07/04 08:05:40;;;;;;;6.18;2.10;;;;;;;20.02;51.29;99420.91;5092640;28;20048;-81
2023/07/04 08:08:07;;;;;;;9.40;2.13;;;;;;;20.08;51.71;99407.91;5091184;28;20059;-82
2023/07/04 08:10:40;;;;;;;9.45;2.25;;;;;;;20.13;50.30;99414.47;5069636;28;20079;-81
2023/07/04 08:13:08;;;;;;;6.47;2.15;;;;;;;20.21;50.96;99412.81;5092873;28;20078;-82
2023/07/04 08:15:35;;;;;;;11.52;2.65;;;;;;;20.26;50.93;99415.84;5092447;28;20058;-81
2023/07/04 08:18:07;;;;;;;8.27;2.50;;;;;;;20.30;50.94;99409.19;5091811;28;20076;-81
2023/07/04 08:20:34;;;;;;;9.25;2.80;;;;;;;20.40;51.21;99411.72;5074200;28;20127;-81
2023/07/04 08:23:01;;;;;;;9.60;2.33;;;;;;;20.49;50.87;99407.25;5074406;28;20044;-82
2023/07/04 08:25:27;;;;;;;9.27;2.58;;;;;;;20.58;50.16;99422.34;5092215;28;20524;-81
2023/07/04 08:27:54;;;;;;;7.35;2.22;;;;;;;20.65;50.63;99423.38;5091407;28;20119;-82
2023/07/04 08:30:21;;;;;;;7.93;2.35;;;;;;;20.73;50.12;99416.38;5073739;28;20047;-81
2023/07/04 08:32:48;;;;;;;6.78;2.38;;;;;;;20.80;49.86;99412.03;5092482;28;20504;-81
2023/07/04 08:35:15;;;;;;;8.95;3.05;;;;;;;20.82;49.72;99408.22;5074061;28;20052;-81
2023/07/04 08:37:42;;;;;;;13.77;2.58;;;;;;;20.83;49.25;99417.09;5074066;28;20457;-81
2023/07/04 08:40:11;;;;;;;9.90;2.55;;;;;;;20.82;49.42;99418.09;5090129;28;20090;-81
2023/07/04 08:42:39;;;;;;;11.10;3.00;;;;;;;20.82;49.18;99415.41;5074352;28;20046;-81
2023/07/04 08:45:11;;;;;;;7.93;2.55;;;;;;;20.79;48.61;99418.41;5091711;28;20063;-81
2023/07/04 08:47:40;;;;;;;8.50;2.50;;;;;;;20.82;48.75;99412.75;5091168;28;20044;-81
2023/07/04 08:50:23;;;;;;;10.95;2.97;;;;;;;20.82;48.62;99407.38;5091005;28;20055;-81
2023/07/04 08:52:58;;;;;;;10.73;2.60;;;;;;;20.86;48.26;99410.56;5074194;28;20064;-81
2023/07/04 08:55:24;;;;;;;7.68;2.10;;;;;;;20.88;48.66;99406.75;5091586;28;20051;-81
2023/07/04 08:57:58;;;;;;;7.85;2.30;;;;;;;20.86;47.90;99419.41;5073646;28;20085;-81
2023/07/04 09:00:32;;;;;;;8.52;2.63;;;;;;;20.84;47.99;99424.09;5073191;28;20067;-81
2023/07/04 09:03:05;;;;;;;8.18;2.17;;;;;;;20.80;47.63;99430.78;5073606;28;20101;-81
2023/07/04 09:05:37;;;;;;;6.68;2.03;;;;;;;20.79;48.29;99432.59;5082855;28;20069;-81
2023/07/04 09:08:22;;;;;;;5.50;2.17;;;;;;;20.74;47.87;99434.09;5091250;28;20040;-82
2023/07/04 09:10:52;;;;;;;6.40;2.00;;;;;;;20.65;48.09;99434.06;5089840;28;20044;-81
2023/07/04 09:13:27;;;;;;;7.47;2.35;;;;;;;20.56;48.12;99437.72;5073766;28;20064;-81
2023/07/04 09:15:57;;;;;;;6.32;2.50;;;;;;;20.53;48.74;99435.34;5091461;28;20105;-81
2023/07/04 09:18:32;;;;;;;5.63;2.17;;;;;;;20.48;49.07;99435.00;5091272;28;20075;-81
2023/07/04 09:21:12;;;;;;;12.95;3.05;;;;;;;20.50;48.86;99443.69;5085734;28;20415;-81
2023/07/04 09:23:40;;;;;;;8.70;3.00;;;;;;;20.54;49.23;99447.72;5073101;28;20079;-81
2023/07/04 09:26:14;;;;;;;7.90;2.58;;;;;;;20.54;48.69;99447.72;5079966;28;20060;-81
2023/07/04 09:28:43;;;;;;;7.85;2.92;;;;;;;20.57;48.80;99442.06;5070978;28;20052;-81
2023/07/04 09:31:21;;;;;;;10.52;2.83;;;;;;;20.54;48.93;99453.91;5082788;28;20056;-81
2023/07/04 09:33:50;;;;;;;8.35;3.17;;;;;;;20.59;48.67;99452.59;5057284;28;20052;-81
2023/07/04 09:36:18;;;;;;;9.77;2.97;;;;;;;20.55;49.18;99460.94;5072725;28;20062;-81
2023/07/04 09:38:52;;;;;;;9.02;2.75;;;;;;;20.48;49.52;99459.06;5090750;28;20040;-81
2023/07/04 09:41:20;;;;;;;13.45;3.00;;;;;;;20.39;49.21;99456.34;5090740;28;20080;-81
2023/07/04 09:43:47;;;;;;;10.30;3.08;;;;;;;20.29;49.82;99466.31;5090691;28;20047;-81
2023/07/04 09:46:28;;;;;;;10.00;2.95;;;;;;;20.09;50.71;99468.34;5090622;28;20050;-80
2023/07/04 09:49:20;;;;;;;7.95;2.70;;;;;;;19.96;51.12;99474.09;5090707;28;20094;-80
2023/07/04 09:52:18;;;;;;;8.27;2.65;;;;;;;19.85;51.88;99478.66;5072826;28;20052;-80
2023/07/04 09:55:07;;;;;;;11.07;2.90;;;;;;;19.77;52.69;99497.28;5090245;28;20048;-80
2023/07/04 09:57:34;;;;;;;11.35;3.53;;;;;;;19.75;52.42;99504.63;5072447;28;20467;-80
2023/07/04 10:00:23;;;;;;;6.70;2.72;;;;;;;19.64;52.49;99506.56;5090423;28;20079;-80
2023/07/04 10:02:54;;;;;;;9.57;2.78;;;;;;;19.59;52.16;99522.16;5089312;28;20060;-80
2023/07/04 10:05:31;;;;;;;7.82;3.00;;;;;;;19.49;52.51;99526.75;5089717;28;20122;-80
2023/07/04 10:08:05;;;;;;;11.95;3.00;;;;;;;19.35;51.82;99526.28;5090160;28;20079;-79
2023/07/04 10:10:55;;;;;;;5.43;2.03;;;;;;;19.09;52.70;99531.47;5072633;28;20076;-79
2023/07/04 10:13:38;;;;;;;4.07;1.70;;;;;;;18.86;52.38;99538.03;5090406;28;20429;-79
2023/07/04 10:16:23;;;;;;;6.18;2.65;;;;;;;18.65;53.68;99526.75;5089482;28;20506;-78
2023/07/04 10:18:50;;;;;;;8.18;2.08;;;;;;;18.53;52.77;99524.25;5090267;28;20052;-78
2023/07/04 10:21:18;;;;;;;4.50;2.22;;;;;;;18.33;53.36;99520.81;5090254;28;20044;-78
2023/07/04 10:23:45;;;;;;;3.90;1.95;;;;;;;18.17;53.98;99524.88;5090137;28;20047;-78
2023/07/04 10:26:14;;;;;;;7.05;1.85;;;;;;;18.01;54.83;99514.78;5089455;28;20446;-78
2023/07/04 10:28:41;;;;;;;4.97;1.95;;;;;;;17.92;54.92;99520.97;5090256;28;20048;-78
2023/07/04 10:31:14;;;;;;;5.63;1.92;;;;;;;17.81;55.65;99517.50;5071718;28;20048;-78
2023/07/04 10:33:58;;;;;;;8.77;2.13;;;;;;;17.71;56.33;99512.16;5089813;28;20301;-78
2023/07/04 10:36:31;;;;;;;5.25;2.08;;;;;;;17.73;56.65;99506.69;5089474;28;20054;-78
2023/07/04 10:39:03;;;;;;;3.63;1.70;;;;;;;17.72;57.52;99502.38;5089634;28;20102;-78
2023/07/04 10:41:40;;;;;;;6.60;2.60;;;;;;;17.74;58.59;99497.72;5090032;28;20044;-78
2023/07/04 10:44:15;;;;;;;5.63;2.28;;;;;;;17.81;58.19;99503.31;5090170;28;20055;-78
2023/07/04 10:47:04;;;;;;;4.70;2.08;;;;;;;17.82;58.16;99500.53;5089440;28;20052;-78
2023/07/04 10:49:36;;;;;;;6.20;2.40;;;;;;;17.92;58.33;99497.84;5090069;28;20472;-79
2023/07/04 10:52:21;;;;;;;7.50;2.20;;;;;;;18.00;59.58;99491.81;5089902;28;20482;-79
2023/07/04 10:54:48;;;;;;;7.35;1.90;;;;;;;18.17;58.85;99498.25;5089852;28;20048;-79
2023/07/04 10:57:25;;;;;;;5.93;2.58;;;;;;;18.31;60.14;99490.78;5089593;28;20050;-79
2023/07/04 10:59:57;;;;;;;4.97;1.70;;;;;;;18.56;60.98;99505.31;5089319;28;20056;-79
2023/07/04 11:02:43;;;;;;;4.68;2.35;;;;;;;18.83;59.79;99503.66;5071945;28;20054;-79
2023/07/04 11:05:15;;;;;;;4.18;1.83;;;;;;;19.19;60.14;99504.75;5089260;28;20050;-79
2023/07/04 11:07:43;;;;;;;4.93;2.03;;;;;;;19.56;60.86;99505.63;5089408;28;20051;-80
2023/07/04 11:10:13;;;;;;;4.95;2.08;;;;;;;19.90;60.92;99500.44;5089199;28;20042;-79
2023/07/04 11:12:42;;;;;;;8.13;2.40;;;;;;;20.29;60.30;99503.72;5072299;28;20491;-79
2023/07/04 11:15:33;;;;;;;5.47;2.42;;;;;;;20.64;58.47;99503.75;5093748;28;20044;-79
2023/07/04 11:18:00;;;;;;;8.82;2.72;;;;;;;21.01;57.98;99504.44;5093540;28;20139;-80
2023/07/04 11:20:37;;;;;;;6.88;2.53;;;;;;;21.32;58.10;99495.81;5093131;28;20060;-80
2023/07/04 11:23:13;;;;;;;11.95;3.65;;;;;;;21.71;59.17;99497.88;5093140;28;20052;-80
2023/07/04 11:25:49;;;;;;;7.53;3.03;;;;;;;22.19;58.13;99505.25;5093455;28;20050;-80
2023/07/04 11:28:26;;;;;;;8.02;2.67;;;;;;;22.66;57.72;99502.84;5093897;28;20040;-79
2023/07/04 11:31:07;;;;;;;6.03;2.85;;;;;;;23.17;55.84;99509.63;5091728;28;20079;-79
2023/07/04 11:33:56;;;;;;;14.30;3.38;;;;;;;23.68;54.17;99506.50;5086407;28;20048;-79
2023/07/04 11:36:26;;;;;;;9.00;2.85;;;;;;;24.20;53.49;99500.53;5072202;28;20160;-80
2023/07/04 11:38:58;;;;;;;6.78;3.15;;;;;;;24.67;52.89;99503.06;5072864;28;20486;-80
2023/07/04 11:41:32;;;;;;;10.00;3.30;;;;;;;25.12;52.64;99503.03;5063734;28;20067;-80
2023/07/04 11:44:28;;;;;;;6.00;2.90;;;;;;;25.56;52.14;99503.06;5089884;28;20059;-80
2023/07/04 11:47:02;;;;;;;11.68;3.08;;;;;;;26.06;49.64;99502.28;5076219;28;20091;-80